EKOD/ODE METAR and TAF weather

Enter ICAO airport designator
Station Type Date Time Source
EKOD METAR 2021/05/17 15:50 UTC NOAA

EKOD 171550Z 20010KT 9999 -SHRA SCT037TCU BKN044 BKN050 13/11 Q1003


Station Type Date Time Source
EKOD Decoded METAR 2021/05/17 15:50 UTC NOAA

Odense / Beldringe, Denmark (EKOD) 55-29N 010-20E 17M
May 17, 2021 - 11:50 AM EDT / 2021.05.17 1550 UTC
Wind: from the SSW (200 degrees) at 12 MPH (10 KT):0
Visibility: greater than 7 mile(s):0
Sky conditions: mostly cloudy
Weather: light rain showers; Towering cumulus clouds observed
Temperature: 55 F (13 C)
Dew Point: 51 F (11 C)
Relative Humidity: 87%
Pressure (altimeter): 29.62 in. Hg (1003 hPa)
ob: EKOD 171550Z 20010KT 9999 -SHRA SCT037TCU BKN044 BKN050 13/11 Q1003
cycle: 16

Station Type Date Time Source
EKOD TAF 2015/04/20 17:00 UTC NOAA

TAF
AMD EKOD 201701Z 2017/2018 CNL

Example: see airport list